Accueil
METAR-TAF:

METAR-TAF

Aéroports :

Nain, Terre-Neuve-et-Labrador, Canada

latitude: 56-33N, longitude: 061-41W, altitude: 6 m

Observation

Le bulletin a été fait il y a 6 heures et 56 minutes, à 23:00 UTC
Vent 13 kt de ouest/nord-ouest avec des rafales jusqu'à 19 kt
Température -7°C
Humidité 53%
Pression 1026 hPa
Visibilité: 24.1 km
Ciel clair

METAR: CYDP 232300Z 29013G19KT 15SM SKC M07/M15 A3030 RMK LAST STAFFED OB/ NEXT 240800 SLP262

Heure: 02:56 (05:56 UTC)

Prévision

Le bulletin a été fait il y a 9 heures et 48 minutes, à 20:08 UTC
Prévision valable du 23 à 20 UTC au 23 à 23 UTC
Vent 15 kt de ouest/nord-ouest avec des rafales jusqu'à 25 kt
Visibilité: 10 km
Quelques nuages à une hauteur de 2000 ft

TAF: CYDP 232008Z 2320/2323 30015G25KT P6SM FEW020 RMK NXT FCST WILL BE ISSUED AT 240945Z

Observations et prévisions météorologiques de plus de 4000 aéroports (messages METAR et TAF).

Les stations disponibles sont représentées par des disques jaunes et rouges sur la carte.

Passer la souris dessus pour voir le nom de la station.

Cliquer dessus pour voir les observations et prévisions météorologiques.

Pour changer de carte: cliquez sur les boutons verts avec une croix noire pour zoomer, sur le bouton vert avec un tiret pour effectuer un zoom arrière, ou sur les flèches vertes pour les cartes adjacentes.


METAR-TAF: